sensor_id;sensor_type;location;lat;lon;timestamp;P1;durP1;ratioP1;P2;durP2;ratioP2
21120;SDS011;12519;43.318;21.898;2023-06-22T00:04:02;20.0;;;18.0;;
21120;SDS011;12519;43.318;21.898;2023-06-22T00:08:38;19.0;;;17.0;;
21120;SDS011;12519;43.318;21.898;2023-06-22T00:13:16;19.0;;;17.0;;
21120;SDS011;12519;43.318;21.898;2023-06-22T00:17:53;22.0;;;18.0;;
21120;SDS011;12519;43.318;21.898;2023-06-22T00:22:29;22.0;;;18.0;;
21120;SDS011;12519;43.318;21.898;2023-06-22T00:27:06;22.0;;;18.0;;
21120;SDS011;12519;43.318;21.898;2023-06-22T00:31:43;25.0;;;19.0;;
21120;SDS011;12519;43.318;21.898;2023-06-22T00:36:19;25.0;;;19.0;;
21120;SDS011;12519;43.318;21.898;2023-06-22T00:40:56;23.0;;;19.0;;
21120;SDS011;12519;43.318;21.898;2023-06-22T00:45:33;23.0;;;19.0;;
21120;SDS011;12519;43.318;21.898;2023-06-22T00:50:21;21.0;;;19.0;;
21120;SDS011;12519;43.318;21.898;2023-06-22T00:55:05;21.0;;;19.0;;
21120;SDS011;12519;43.318;21.898;2023-06-22T00:59:45;20.0;;;19.0;;
21120;SDS011;12519;43.318;21.898;2023-06-22T01:04:39;20.0;;;19.0;;
21120;SDS011;12519;43.318;21.898;2023-06-22T01:09:35;20.0;;;19.0;;
21120;SDS011;12519;43.318;21.898;2023-06-22T01:14:43;20.0;;;19.0;;
21120;SDS011;12519;43.318;21.898;2023-06-22T01:19:49;20.0;;;18.0;;
21120;SDS011;12519;43.318;21.898;2023-06-22T01:25:09;20.0;;;18.0;;
21120;SDS011;12519;43.318;21.898;2023-06-22T01:29:55;19.0;;;17.0;;
21120;SDS011;12519;43.318;21.898;2023-06-22T01:34:42;19.0;;;17.0;;
21120;SDS011;12519;43.318;21.898;2023-06-22T01:39:22;19.0;;;18.0;;
21120;SDS011;12519;43.318;21.898;2023-06-22T01:44:05;19.0;;;18.0;;
21120;SDS011;12519;43.318;21.898;2023-06-22T01:48:43;19.0;;;18.0;;
21120;SDS011;12519;43.318;21.898;2023-06-22T01:53:22;19.0;;;18.0;;
21120;SDS011;12519;43.318;21.898;2023-06-22T01:58:00;18.0;;;16.0;;
21120;SDS011;12519;43.318;21.898;2023-06-22T02:02:56;18.0;;;16.0;;
21120;SDS011;12519;43.318;21.898;2023-06-22T02:08:07;16.0;;;15.0;;
21120;SDS011;12519;43.318;21.898;2023-06-22T02:13:01;16.0;;;15.0;;
21120;SDS011;12519;43.318;21.898;2023-06-22T02:17:48;16.0;;;16.0;;
21120;SDS011;12519;43.318;21.898;2023-06-22T02:22:25;16.0;;;16.0;;
21120;SDS011;12519;43.318;21.898;2023-06-22T02:27:04;16.0;;;16.0;;
21120;SDS011;12519;43.318;21.898;2023-06-22T02:31:42;17.0;;;16.0;;
21120;SDS011;12519;43.318;21.898;2023-06-22T02:36:18;17.0;;;16.0;;
21120;SDS011;12519;43.318;21.898;2023-06-22T02:40:55;18.0;;;16.0;;
21120;SDS011;12519;43.318;21.898;2023-06-22T02:45:32;18.0;;;16.0;;
21120;SDS011;12519;43.318;21.898;2023-06-22T02:50:10;18.0;;;17.0;;
21120;SDS011;12519;43.318;21.898;2023-06-22T02:54:46;18.0;;;17.0;;
21120;SDS011;12519;43.318;21.898;2023-06-22T02:59:23;19.0;;;18.0;;
21120;SDS011;12519;43.318;21.898;2023-06-22T03:03:59;19.0;;;18.0;;
21120;SDS011;12519;43.318;21.898;2023-06-22T03:08:36;20.0;;;19.0;;
21120;SDS011;12519;43.318;21.898;2023-06-22T03:13:12;20.0;;;19.0;;
21120;SDS011;12519;43.318;21.898;2023-06-22T03:17:49;18.0;;;17.0;;
21120;SDS011;12519;43.318;21.898;2023-06-22T03:22:26;18.0;;;17.0;;
21120;SDS011;12519;43.318;21.898;2023-06-22T03:27:04;18.0;;;17.0;;
21120;SDS011;12519;43.318;21.898;2023-06-22T03:31:41;16.0;;;15.0;;
21120;SDS011;12519;43.318;21.898;2023-06-22T03:36:19;16.0;;;15.0;;
21120;SDS011;12519;43.318;21.898;2023-06-22T03:40:56;16.0;;;15.0;;
21120;SDS011;12519;43.318;21.898;2023-06-22T03:45:33;16.0;;;15.0;;
21120;SDS011;12519;43.318;21.898;2023-06-22T03:50:10;16.0;;;15.0;;
21120;SDS011;12519;43.318;21.898;2023-06-22T03:54:46;16.0;;;15.0;;
21120;SDS011;12519;43.318;21.898;2023-06-22T03:59:23;18.0;;;18.0;;
21120;SDS011;12519;43.318;21.898;2023-06-22T04:04:01;18.0;;;18.0;;
21120;SDS011;12519;43.318;21.898;2023-06-22T04:08:37;21.0;;;20.0;;
21120;SDS011;12519;43.318;21.898;2023-06-22T04:13:14;21.0;;;20.0;;
21120;SDS011;12519;43.318;21.898;2023-06-22T04:17:50;19.0;;;18.0;;
21120;SDS011;12519;43.318;21.898;2023-06-22T04:22:27;19.0;;;18.0;;
21120;SDS011;12519;43.318;21.898;2023-06-22T04:27:06;19.0;;;18.0;;
21120;SDS011;12519;43.318;21.898;2023-06-22T04:31:42;17.0;;;17.0;;
21120;SDS011;12519;43.318;21.898;2023-06-22T04:36:19;17.0;;;17.0;;
21120;SDS011;12519;43.318;21.898;2023-06-22T04:40:56;18.0;;;18.0;;
21120;SDS011;12519;43.318;21.898;2023-06-22T04:45:33;18.0;;;18.0;;
21120;SDS011;12519;43.318;21.898;2023-06-22T04:50:10;20.0;;;19.0;;
21120;SDS011;12519;43.318;21.898;2023-06-22T04:54:49;20.0;;;19.0;;
21120;SDS011;12519;43.318;21.898;2023-06-22T04:59:31;22.0;;;20.0;;
21120;SDS011;12519;43.318;21.898;2023-06-22T05:04:08;22.0;;;20.0;;
21120;SDS011;12519;43.318;21.898;2023-06-22T05:08:45;25.0;;;20.0;;
21120;SDS011;12519;43.318;21.898;2023-06-22T05:13:21;25.0;;;20.0;;
21120;SDS011;12519;43.318;21.898;2023-06-22T05:17:57;24.0;;;20.0;;
21120;SDS011;12519;43.318;21.898;2023-06-22T05:22:33;24.0;;;20.0;;
21120;SDS011;12519;43.318;21.898;2023-06-22T05:27:10;24.0;;;20.0;;
21120;SDS011;12519;43.318;21.898;2023-06-22T05:31:46;24.0;;;19.0;;
21120;SDS011;12519;43.318;21.898;2023-06-22T05:36:23;24.0;;;19.0;;
21120;SDS011;12519;43.318;21.898;2023-06-22T05:41:00;23.0;;;20.0;;
21120;SDS011;12519;43.318;21.898;2023-06-22T05:45:36;23.0;;;20.0;;
21120;SDS011;12519;43.318;21.898;2023-06-22T05:50:13;22.0;;;21.0;;
21120;SDS011;12519;43.318;21.898;2023-06-22T05:54:49;22.0;;;21.0;;
21120;SDS011;12519;43.318;21.898;2023-06-22T05:59:26;20.0;;;19.0;;
21120;SDS011;12519;43.318;21.898;2023-06-22T06:04:03;20.0;;;19.0;;
21120;SDS011;12519;43.318;21.898;2023-06-22T06:08:41;18.0;;;17.0;;
21120;SDS011;12519;43.318;21.898;2023-06-22T06:13:18;18.0;;;17.0;;
21120;SDS011;12519;43.318;21.898;2023-06-22T06:17:54;18.0;;;18.0;;
21120;SDS011;12519;43.318;21.898;2023-06-22T06:22:31;18.0;;;18.0;;
21120;SDS011;12519;43.318;21.898;2023-06-22T06:27:07;18.0;;;18.0;;
21120;SDS011;12519;43.318;21.898;2023-06-22T06:31:44;19.0;;;18.0;;
21120;SDS011;12519;43.318;21.898;2023-06-22T06:36:21;19.0;;;18.0;;
21120;SDS011;12519;43.318;21.898;2023-06-22T06:40:58;18.0;;;17.0;;
21120;SDS011;12519;43.318;21.898;2023-06-22T06:45:35;18.0;;;17.0;;
21120;SDS011;12519;43.318;21.898;2023-06-22T06:50:12;17.0;;;16.0;;
21120;SDS011;12519;43.318;21.898;2023-06-22T06:54:49;17.0;;;16.0;;
21120;SDS011;12519;43.318;21.898;2023-06-22T06:59:25;18.0;;;16.0;;
21120;SDS011;12519;43.318;21.898;2023-06-22T07:04:03;18.0;;;16.0;;
21120;SDS011;12519;43.318;21.898;2023-06-22T07:08:40;18.0;;;17.0;;
21120;SDS011;12519;43.318;21.898;2023-06-22T07:13:16;18.0;;;17.0;;
21120;SDS011;12519;43.318;21.898;2023-06-22T07:17:53;18.0;;;17.0;;
21120;SDS011;12519;43.318;21.898;2023-06-22T07:22:30;20.0;;;18.0;;
21120;SDS011;12519;43.318;21.898;2023-06-22T07:27:06;20.0;;;18.0;;
21120;SDS011;12519;43.318;21.898;2023-06-22T07:31:45;21.0;;;18.0;;
21120;SDS011;12519;43.318;21.898;2023-06-22T07:36:29;21.0;;;18.0;;
21120;SDS011;12519;43.318;21.898;2023-06-22T07:41:06;20.0;;;18.0;;
21120;SDS011;12519;43.318;21.898;2023-06-22T07:45:49;20.0;;;18.0;;
21120;SDS011;12519;43.318;21.898;2023-06-22T07:50:26;20.0;;;18.0;;
21120;SDS011;12519;43.318;21.898;2023-06-22T07:55:04;20.0;;;18.0;;
21120;SDS011;12519;43.318;21.898;2023-06-22T07:59:41;22.0;;;18.0;;
21120;SDS011;12519;43.318;21.898;2023-06-22T08:04:18;22.0;;;18.0;;
21120;SDS011;12519;43.318;21.898;2023-06-22T08:08:54;23.0;;;19.0;;
21120;SDS011;12519;43.318;21.898;2023-06-22T08:13:31;23.0;;;19.0;;
21120;SDS011;12519;43.318;21.898;2023-06-22T08:18:07;22.0;;;19.0;;
21120;SDS011;12519;43.318;21.898;2023-06-22T08:22:44;22.0;;;19.0;;
21120;SDS011;12519;43.318;21.898;2023-06-22T08:27:20;22.0;;;19.0;;
21120;SDS011;12519;43.318;21.898;2023-06-22T08:31:57;20.0;;;19.0;;
21120;SDS011;12519;43.318;21.898;2023-06-22T08:36:34;20.0;;;19.0;;
21120;SDS011;12519;43.318;21.898;2023-06-22T08:41:11;21.0;;;19.0;;
21120;SDS011;12519;43.318;21.898;2023-06-22T08:45:48;21.0;;;19.0;;
21120;SDS011;12519;43.318;21.898;2023-06-22T08:50:25;22.0;;;19.0;;
21120;SDS011;12519;43.318;21.898;2023-06-22T08:55:04;22.0;;;19.0;;
21120;SDS011;12519;43.318;21.898;2023-06-22T08:59:45;22.0;;;20.0;;
21120;SDS011;12519;43.318;21.898;2023-06-22T09:04:22;22.0;;;20.0;;
21120;SDS011;12519;43.318;21.898;2023-06-22T09:09:00;21.0;;;20.0;;
21120;SDS011;12519;43.318;21.898;2023-06-22T09:13:37;21.0;;;20.0;;
21120;SDS011;12519;43.318;21.898;2023-06-22T09:18:14;21.0;;;20.0;;
21120;SDS011;12519;43.318;21.898;2023-06-22T09:22:51;22.0;;;20.0;;
21120;SDS011;12519;43.318;21.898;2023-06-22T09:27:28;22.0;;;20.0;;
21120;SDS011;12519;43.318;21.898;2023-06-22T09:32:07;23.0;;;21.0;;
21120;SDS011;12519;43.318;21.898;2023-06-22T09:36:44;23.0;;;21.0;;
21120;SDS011;12519;43.318;21.898;2023-06-22T09:41:22;20.0;;;19.0;;
21120;SDS011;12519;43.318;21.898;2023-06-22T09:45:59;20.0;;;19.0;;
21120;SDS011;12519;43.318;21.898;2023-06-22T09:50:36;18.0;;;17.0;;
21120;SDS011;12519;43.318;21.898;2023-06-22T09:55:13;18.0;;;17.0;;
21120;SDS011;12519;43.318;21.898;2023-06-22T09:59:51;18.0;;;16.0;;
21120;SDS011;12519;43.318;21.898;2023-06-22T10:04:28;18.0;;;16.0;;
21120;SDS011;12519;43.318;21.898;2023-06-22T10:09:06;18.0;;;15.0;;
21120;SDS011;12519;43.318;21.898;2023-06-22T10:13:44;18.0;;;15.0;;
21120;SDS011;12519;43.318;21.898;2023-06-22T10:18:21;18.0;;;15.0;;
21120;SDS011;12519;43.318;21.898;2023-06-22T10:22:58;15.0;;;13.0;;
21120;SDS011;12519;43.318;21.898;2023-06-22T10:27:35;15.0;;;13.0;;
21120;SDS011;12519;43.318;21.898;2023-06-22T10:32:12;12.0;;;11.0;;
21120;SDS011;12519;43.318;21.898;2023-06-22T10:36:48;12.0;;;11.0;;
21120;SDS011;12519;43.318;21.898;2023-06-22T10:41:25;14.0;;;13.0;;
21120;SDS011;12519;43.318;21.898;2023-06-22T10:46:01;14.0;;;13.0;;
21120;SDS011;12519;43.318;21.898;2023-06-22T10:50:38;15.0;;;15.0;;
21120;SDS011;12519;43.318;21.898;2023-06-22T10:55:14;15.0;;;15.0;;
21120;SDS011;12519;43.318;21.898;2023-06-22T10:59:51;14.0;;;14.0;;
21120;SDS011;12519;43.318;21.898;2023-06-22T11:04:28;14.0;;;14.0;;
21120;SDS011;12519;43.318;21.898;2023-06-22T11:09:04;14.0;;;14.0;;
21120;SDS011;12519;43.318;21.898;2023-06-22T11:13:41;14.0;;;14.0;;
21120;SDS011;12519;43.318;21.898;2023-06-22T11:18:17;14.0;;;14.0;;
21120;SDS011;12519;43.318;21.898;2023-06-22T11:22:54;16.0;;;14.0;;
21120;SDS011;12519;43.318;21.898;2023-06-22T11:27:32;16.0;;;14.0;;
21120;SDS011;12519;43.318;21.898;2023-06-22T11:32:09;17.0;;;14.0;;
21120;SDS011;12519;43.318;21.898;2023-06-22T11:36:46;17.0;;;14.0;;
21120;SDS011;12519;43.318;21.898;2023-06-22T11:41:23;16.0;;;14.0;;
21120;SDS011;12519;43.318;21.898;2023-06-22T11:46:03;16.0;;;14.0;;
21120;SDS011;12519;43.318;21.898;2023-06-22T11:50:40;15.0;;;14.0;;
21120;SDS011;12519;43.318;21.898;2023-06-22T11:55:17;15.0;;;14.0;;
21120;SDS011;12519;43.318;21.898;2023-06-22T11:59:53;16.0;;;14.0;;
21120;SDS011;12519;43.318;21.898;2023-06-22T12:04:30;16.0;;;14.0;;
21120;SDS011;12519;43.318;21.898;2023-06-22T12:09:07;16.0;;;13.0;;
21120;SDS011;12519;43.318;21.898;2023-06-22T12:13:43;16.0;;;13.0;;
21120;SDS011;12519;43.318;21.898;2023-06-22T12:18:20;16.0;;;13.0;;
21120;SDS011;12519;43.318;21.898;2023-06-22T12:22:58;16.0;;;14.0;;
21120;SDS011;12519;43.318;21.898;2023-06-22T12:27:35;16.0;;;14.0;;
21120;SDS011;12519;43.318;21.898;2023-06-22T12:32:15;15.0;;;14.0;;
21120;SDS011;12519;43.318;21.898;2023-06-22T12:36:51;15.0;;;14.0;;
21120;SDS011;12519;43.318;21.898;2023-06-22T12:41:28;15.0;;;14.0;;
21120;SDS011;12519;43.318;21.898;2023-06-22T12:46:05;15.0;;;14.0;;
21120;SDS011;12519;43.318;21.898;2023-06-22T12:50:42;15.0;;;14.0;;
21120;SDS011;12519;43.318;21.898;2023-06-22T12:55:19;15.0;;;14.0;;
21120;SDS011;12519;43.318;21.898;2023-06-22T12:59:56;16.0;;;14.0;;
21120;SDS011;12519;43.318;21.898;2023-06-22T13:04:32;16.0;;;14.0;;
21120;SDS011;12519;43.318;21.898;2023-06-22T13:09:10;16.0;;;15.0;;
21120;SDS011;12519;43.318;21.898;2023-06-22T13:13:47;16.0;;;15.0;;
21120;SDS011;12519;43.318;21.898;2023-06-22T13:18:23;16.0;;;15.0;;
21120;SDS011;12519;43.318;21.898;2023-06-22T13:23:00;16.0;;;16.0;;
21120;SDS011;12519;43.318;21.898;2023-06-22T13:27:36;16.0;;;16.0;;
21120;SDS011;12519;43.318;21.898;2023-06-22T13:32:13;17.0;;;16.0;;
21120;SDS011;12519;43.318;21.898;2023-06-22T13:36:49;17.0;;;16.0;;
21120;SDS011;12519;43.318;21.898;2023-06-22T13:41:26;17.0;;;16.0;;
21120;SDS011;12519;43.318;21.898;2023-06-22T13:46:02;17.0;;;16.0;;
21120;SDS011;12519;43.318;21.898;2023-06-22T13:50:39;17.0;;;17.0;;
21120;SDS011;12519;43.318;21.898;2023-06-22T13:55:15;17.0;;;17.0;;
21120;SDS011;12519;43.318;21.898;2023-06-22T13:59:52;18.0;;;17.0;;
21120;SDS011;12519;43.318;21.898;2023-06-22T14:04:29;18.0;;;17.0;;
21120;SDS011;12519;43.318;21.898;2023-06-22T14:09:06;19.0;;;17.0;;
21120;SDS011;12519;43.318;21.898;2023-06-22T14:13:43;19.0;;;17.0;;
21120;SDS011;12519;43.318;21.898;2023-06-22T14:18:20;19.0;;;17.0;;
21120;SDS011;12519;43.318;21.898;2023-06-22T14:22:56;21.0;;;17.0;;
21120;SDS011;12519;43.318;21.898;2023-06-22T14:27:33;21.0;;;17.0;;
21120;SDS011;12519;43.318;21.898;2023-06-22T14:32:10;23.0;;;17.0;;
21120;SDS011;12519;43.318;21.898;2023-06-22T14:36:46;23.0;;;17.0;;
21120;SDS011;12519;43.318;21.898;2023-06-22T14:41:23;20.0;;;15.0;;
21120;SDS011;12519;43.318;21.898;2023-06-22T14:46:00;20.0;;;15.0;;
21120;SDS011;12519;43.318;21.898;2023-06-22T14:50:37;17.0;;;13.0;;
21120;SDS011;12519;43.318;21.898;2023-06-22T14:55:13;17.0;;;13.0;;
21120;SDS011;12519;43.318;21.898;2023-06-22T14:59:49;16.0;;;12.0;;
21120;SDS011;12519;43.318;21.898;2023-06-22T15:04:26;16.0;;;12.0;;
21120;SDS011;12519;43.318;21.898;2023-06-22T15:09:03;14.0;;;11.0;;
21120;SDS011;12519;43.318;21.898;2023-06-22T15:13:41;14.0;;;11.0;;
21120;SDS011;12519;43.318;21.898;2023-06-22T15:18:19;14.0;;;11.0;;
21120;SDS011;12519;43.318;21.898;2023-06-22T15:22:57;14.0;;;12.0;;
21120;SDS011;12519;43.318;21.898;2023-06-22T15:27:34;14.0;;;12.0;;
21120;SDS011;12519;43.318;21.898;2023-06-22T15:32:11;15.0;;;12.0;;
21120;SDS011;12519;43.318;21.898;2023-06-22T15:36:48;15.0;;;12.0;;
21120;SDS011;12519;43.318;21.898;2023-06-22T15:41:25;14.0;;;12.0;;
21120;SDS011;12519;43.318;21.898;2023-06-22T15:46:02;14.0;;;12.0;;
21120;SDS011;12519;43.318;21.898;2023-06-22T15:50:39;14.0;;;13.0;;
21120;SDS011;12519;43.318;21.898;2023-06-22T15:55:18;14.0;;;13.0;;
21120;SDS011;12519;43.318;21.898;2023-06-22T15:59:55;13.0;;;12.0;;
21120;SDS011;12519;43.318;21.898;2023-06-22T16:04:32;13.0;;;12.0;;
21120;SDS011;12519;43.318;21.898;2023-06-22T16:09:08;12.0;;;11.0;;
21120;SDS011;12519;43.318;21.898;2023-06-22T16:13:44;12.0;;;11.0;;
21120;SDS011;12519;43.318;21.898;2023-06-22T16:18:21;12.0;;;11.0;;
21120;SDS011;12519;43.318;21.898;2023-06-22T16:22:57;14.0;;;12.0;;
21120;SDS011;12519;43.318;21.898;2023-06-22T16:27:34;14.0;;;12.0;;
21120;SDS011;12519;43.318;21.898;2023-06-22T16:32:11;15.0;;;14.0;;
21120;SDS011;12519;43.318;21.898;2023-06-22T16:36:47;15.0;;;14.0;;
21120;SDS011;12519;43.318;21.898;2023-06-22T16:41:24;14.0;;;14.0;;
21120;SDS011;12519;43.318;21.898;2023-06-22T16:46:01;14.0;;;14.0;;
21120;SDS011;12519;43.318;21.898;2023-06-22T16:50:37;14.0;;;13.0;;
21120;SDS011;12519;43.318;21.898;2023-06-22T16:55:14;14.0;;;13.0;;
21120;SDS011;12519;43.318;21.898;2023-06-22T16:59:52;16.0;;;14.0;;
21120;SDS011;12519;43.318;21.898;2023-06-22T17:04:34;16.0;;;14.0;;
21120;SDS011;12519;43.318;21.898;2023-06-22T17:09:25;17.0;;;15.0;;
21120;SDS011;12519;43.318;21.898;2023-06-22T17:14:03;17.0;;;15.0;;
21120;SDS011;12519;43.318;21.898;2023-06-22T17:18:42;17.0;;;15.0;;
21120;SDS011;12519;43.318;21.898;2023-06-22T17:23:24;15.0;;;14.0;;
21120;SDS011;12519;43.318;21.898;2023-06-22T17:28:03;15.0;;;14.0;;
21120;SDS011;12519;43.318;21.898;2023-06-22T17:32:47;13.0;;;12.0;;
21120;SDS011;12519;43.318;21.898;2023-06-22T17:37:24;13.0;;;12.0;;
21120;SDS011;12519;43.318;21.898;2023-06-22T17:42:06;14.0;;;12.0;;
21120;SDS011;12519;43.318;21.898;2023-06-22T17:46:44;14.0;;;12.0;;
21120;SDS011;12519;43.318;21.898;2023-06-22T17:51:21;16.0;;;13.0;;
21120;SDS011;12519;43.318;21.898;2023-06-22T17:55:59;16.0;;;13.0;;
21120;SDS011;12519;43.318;21.898;2023-06-22T18:00:36;16.0;;;12.0;;
21120;SDS011;12519;43.318;21.898;2023-06-22T18:05:17;16.0;;;12.0;;
21120;SDS011;12519;43.318;21.898;2023-06-22T18:10:10;15.0;;;12.0;;
21120;SDS011;12519;43.318;21.898;2023-06-22T18:14:47;15.0;;;12.0;;
21120;SDS011;12519;43.318;21.898;2023-06-22T18:19:28;15.0;;;12.0;;
21120;SDS011;12519;43.318;21.898;2023-06-22T18:24:15;15.0;;;12.0;;
21120;SDS011;12519;43.318;21.898;2023-06-22T18:28:57;15.0;;;12.0;;
21120;SDS011;12519;43.318;21.898;2023-06-22T18:33:34;15.0;;;13.0;;
21120;SDS011;12519;43.318;21.898;2023-06-22T18:38:11;15.0;;;13.0;;
21120;SDS011;12519;43.318;21.898;2023-06-22T18:42:49;14.0;;;12.0;;
21120;SDS011;12519;43.318;21.898;2023-06-22T18:47:28;14.0;;;12.0;;
21120;SDS011;12519;43.318;21.898;2023-06-22T18:52:24;12.0;;;11.0;;
21120;SDS011;12519;43.318;21.898;2023-06-22T18:57:13;12.0;;;11.0;;
21120;SDS011;12519;43.318;21.898;2023-06-22T19:01:52;12.0;;;12.0;;
21120;SDS011;12519;43.318;21.898;2023-06-22T19:06:54;12.0;;;12.0;;
21120;SDS011;12519;43.318;21.898;2023-06-22T19:11:31;12.0;;;12.0;;
21120;SDS011;12519;43.318;21.898;2023-06-22T19:16:08;12.0;;;12.0;;
21120;SDS011;12519;43.318;21.898;2023-06-22T19:20:47;13.0;;;12.0;;
21120;SDS011;12519;43.318;21.898;2023-06-22T19:25:36;13.0;;;12.0;;
21120;SDS011;12519;43.318;21.898;2023-06-22T19:30:23;14.0;;;11.0;;
21120;SDS011;12519;43.318;21.898;2023-06-22T19:35:05;14.0;;;11.0;;
21120;SDS011;12519;43.318;21.898;2023-06-22T19:39:45;13.0;;;10.0;;
21120;SDS011;12519;43.318;21.898;2023-06-22T19:44:22;13.0;;;10.0;;
21120;SDS011;12519;43.318;21.898;2023-06-22T19:49:04;13.0;;;10.0;;
21120;SDS011;12519;43.318;21.898;2023-06-22T19:53:41;12.0;;;10.0;;
21120;SDS011;12519;43.318;21.898;2023-06-22T19:58:21;12.0;;;10.0;;
21120;SDS011;12519;43.318;21.898;2023-06-22T20:02:57;14.0;;;10.0;;
21120;SDS011;12519;43.318;21.898;2023-06-22T20:07:37;14.0;;;10.0;;
21120;SDS011;12519;43.318;21.898;2023-06-22T20:12:23;17.0;;;11.0;;
21120;SDS011;12519;43.318;21.898;2023-06-22T20:16:59;17.0;;;11.0;;
21120;SDS011;12519;43.318;21.898;2023-06-22T20:21:37;14.0;;;10.0;;
21120;SDS011;12519;43.318;21.898;2023-06-22T20:26:17;14.0;;;10.0;;
21120;SDS011;12519;43.318;21.898;2023-06-22T20:31:05;10.0;;;9.0;;
21120;SDS011;12519;43.318;21.898;2023-06-22T20:35:45;10.0;;;9.0;;
21120;SDS011;12519;43.318;21.898;2023-06-22T20:40:24;12.0;;;10.0;;
21120;SDS011;12519;43.318;21.898;2023-06-22T20:45:03;12.0;;;10.0;;
21120;SDS011;12519;43.318;21.898;2023-06-22T20:49:43;13.0;;;10.0;;
21120;SDS011;12519;43.318;21.898;2023-06-22T20:54:20;13.0;;;10.0;;
21120;SDS011;12519;43.318;21.898;2023-06-22T20:58:57;13.0;;;10.0;;
21120;SDS011;12519;43.318;21.898;2023-06-22T21:03:34;14.0;;;10.0;;
21120;SDS011;12519;43.318;21.898;2023-06-22T21:08:10;14.0;;;10.0;;
21120;SDS011;12519;43.318;21.898;2023-06-22T21:12:49;16.0;;;11.0;;
21120;SDS011;12519;43.318;21.898;2023-06-22T21:17:26;16.0;;;11.0;;
21120;SDS011;12519;43.318;21.898;2023-06-22T21:22:03;14.0;;;10.0;;
21120;SDS011;12519;43.318;21.898;2023-06-22T21:26:41;14.0;;;10.0;;
21120;SDS011;12519;43.318;21.898;2023-06-22T21:31:18;12.0;;;10.0;;
21120;SDS011;12519;43.318;21.898;2023-06-22T21:35:54;12.0;;;10.0;;
21120;SDS011;12519;43.318;21.898;2023-06-22T21:40:30;13.0;;;12.0;;
21120;SDS011;12519;43.318;21.898;2023-06-22T21:45:09;13.0;;;12.0;;
21120;SDS011;12519;43.318;21.898;2023-06-22T21:49:46;14.0;;;13.0;;
21120;SDS011;12519;43.318;21.898;2023-06-22T21:54:22;14.0;;;13.0;;
21120;SDS011;12519;43.318;21.898;2023-06-22T21:58:59;14.0;;;13.0;;
21120;SDS011;12519;43.318;21.898;2023-06-22T22:03:36;13.0;;;12.0;;
21120;SDS011;12519;43.318;21.898;2023-06-22T22:08:12;13.0;;;12.0;;
21120;SDS011;12519;43.318;21.898;2023-06-22T22:12:51;12.0;;;10.0;;
21120;SDS011;12519;43.318;21.898;2023-06-22T22:17:28;12.0;;;10.0;;
21120;SDS011;12519;43.318;21.898;2023-06-22T22:22:05;12.0;;;10.0;;
21120;SDS011;12519;43.318;21.898;2023-06-22T22:26:42;12.0;;;10.0;;
21120;SDS011;12519;43.318;21.898;2023-06-22T22:31:19;11.0;;;10.0;;
21120;SDS011;12519;43.318;21.898;2023-06-22T22:35:55;11.0;;;10.0;;
21120;SDS011;12519;43.318;21.898;2023-06-22T22:40:32;12.0;;;10.0;;
21120;SDS011;12519;43.318;21.898;2023-06-22T22:45:10;12.0;;;10.0;;
21120;SDS011;12519;43.318;21.898;2023-06-22T22:49:47;13.0;;;11.0;;
21120;SDS011;12519;43.318;21.898;2023-06-22T22:54:23;13.0;;;11.0;;
21120;SDS011;12519;43.318;21.898;2023-06-22T22:59:00;13.0;;;11.0;;
21120;SDS011;12519;43.318;21.898;2023-06-22T23:03:37;12.0;;;11.0;;
21120;SDS011;12519;43.318;21.898;2023-06-22T23:08:14;12.0;;;11.0;;
21120;SDS011;12519;43.318;21.898;2023-06-22T23:12:51;12.0;;;11.0;;
21120;SDS011;12519;43.318;21.898;2023-06-22T23:17:27;12.0;;;11.0;;
21120;SDS011;12519;43.318;21.898;2023-06-22T23:22:05;12.0;;;10.0;;
21120;SDS011;12519;43.318;21.898;2023-06-22T23:26:42;12.0;;;10.0;;
21120;SDS011;12519;43.318;21.898;2023-06-22T23:31:19;12.0;;;10.0;;
21120;SDS011;12519;43.318;21.898;2023-06-22T23:35:55;12.0;;;10.0;;
21120;SDS011;12519;43.318;21.898;2023-06-22T23:40:32;11.0;;;10.0;;
21120;SDS011;12519;43.318;21.898;2023-06-22T23:45:10;11.0;;;10.0;;
21120;SDS011;12519;43.318;21.898;2023-06-22T23:49:46;11.0;;;10.0;;
21120;SDS011;12519;43.318;21.898;2023-06-22T23:54:23;10.0;;;10.0;;
21120;SDS011;12519;43.318;21.898;2023-06-22T23:58:59;10.0;;;10.0;;
